sensor_id;sensor_type;location;lat;lon;timestamp;temperature;humidity
15113;DHT22;7657;50.140;7.076;2022-07-23T00:00:15;21.70;99.90
15113;DHT22;7657;50.140;7.076;2022-07-23T00:02:42;21.70;99.90
15113;DHT22;7657;50.140;7.076;2022-07-23T00:05:10;21.80;99.90
15113;DHT22;7657;50.140;7.076;2022-07-23T00:07:37;21.60;99.90
15113;DHT22;7657;50.140;7.076;2022-07-23T00:10:04;21.40;99.90
15113;DHT22;7657;50.140;7.076;2022-07-23T00:12:32;21.40;99.90
15113;DHT22;7657;50.140;7.076;2022-07-23T00:14:59;21.30;99.90
15113;DHT22;7657;50.140;7.076;2022-07-23T00:17:27;21.30;99.90
15113;DHT22;7657;50.140;7.076;2022-07-23T00:19:54;21.20;99.90
15113;DHT22;7657;50.140;7.076;2022-07-23T00:22:21;21.10;99.90
15113;DHT22;7657;50.140;7.076;2022-07-23T00:24:48;21.30;99.90
15113;DHT22;7657;50.140;7.076;2022-07-23T00:27:15;21.30;99.90
15113;DHT22;7657;50.140;7.076;2022-07-23T00:29:42;21.40;99.90
15113;DHT22;7657;50.140;7.076;2022-07-23T00:32:09;21.40;99.90
15113;DHT22;7657;50.140;7.076;2022-07-23T00:34:37;21.40;99.90
15113;DHT22;7657;50.140;7.076;2022-07-23T00:37:04;21.40;99.90
15113;DHT22;7657;50.140;7.076;2022-07-23T00:39:31;21.10;99.90
15113;DHT22;7657;50.140;7.076;2022-07-23T00:41:58;21.20;99.90
15113;DHT22;7657;50.140;7.076;2022-07-23T00:44:27;21.20;99.90
15113;DHT22;7657;50.140;7.076;2022-07-23T00:46:56;21.20;99.90
15113;DHT22;7657;50.140;7.076;2022-07-23T00:49:25;21.20;99.90
15113;DHT22;7657;50.140;7.076;2022-07-23T00:51:54;21.10;99.90
15113;DHT22;7657;50.140;7.076;2022-07-23T00:54:22;21.20;99.90
15113;DHT22;7657;50.140;7.076;2022-07-23T00:56:50;21.30;99.90
15113;DHT22;7657;50.140;7.076;2022-07-23T00:59:17;21.30;99.90
15113;DHT22;7657;50.140;7.076;2022-07-23T01:01:44;21.10;99.90
15113;DHT22;7657;50.140;7.076;2022-07-23T01:04:13;21.20;99.90
15113;DHT22;7657;50.140;7.076;2022-07-23T01:06:40;21.10;99.90
15113;DHT22;7657;50.140;7.076;2022-07-23T01:09:09;21.10;99.90
15113;DHT22;7657;50.140;7.076;2022-07-23T01:11:37;21.20;99.90
15113;DHT22;7657;50.140;7.076;2022-07-23T01:14:11;21.30;99.90
15113;DHT22;7657;50.140;7.076;2022-07-23T01:16:39;21.30;99.90
15113;DHT22;7657;50.140;7.076;2022-07-23T01:19:06;21.40;99.90
15113;DHT22;7657;50.140;7.076;2022-07-23T01:21:36;21.40;99.90
15113;DHT22;7657;50.140;7.076;2022-07-23T01:24:05;21.40;99.90
15113;DHT22;7657;50.140;7.076;2022-07-23T01:26:33;21.40;99.90
15113;DHT22;7657;50.140;7.076;2022-07-23T01:29:00;21.30;99.90
15113;DHT22;7657;50.140;7.076;2022-07-23T01:31:27;21.30;99.90
15113;DHT22;7657;50.140;7.076;2022-07-23T01:33:54;21.20;99.90
15113;DHT22;7657;50.140;7.076;2022-07-23T01:36:21;21.20;99.90
15113;DHT22;7657;50.140;7.076;2022-07-23T01:38:49;21.20;99.90
15113;DHT22;7657;50.140;7.076;2022-07-23T01:41:18;21.20;99.90
15113;DHT22;7657;50.140;7.076;2022-07-23T01:43:45;21.20;99.90
15113;DHT22;7657;50.140;7.076;2022-07-23T01:46:12;21.20;99.90
15113;DHT22;7657;50.140;7.076;2022-07-23T01:48:39;21.20;99.90
15113;DHT22;7657;50.140;7.076;2022-07-23T01:51:06;21.00;99.90
15113;DHT22;7657;50.140;7.076;2022-07-23T01:53:33;21.10;99.90
15113;DHT22;7657;50.140;7.076;2022-07-23T01:56:00;21.10;99.90
15113;DHT22;7657;50.140;7.076;2022-07-23T01:58:30;21.20;99.90
15113;DHT22;7657;50.140;7.076;2022-07-23T02:00:57;21.20;99.90
15113;DHT22;7657;50.140;7.076;2022-07-23T02:03:25;21.20;99.90
15113;DHT22;7657;50.140;7.076;2022-07-23T02:05:52;21.20;99.90
15113;DHT22;7657;50.140;7.076;2022-07-23T02:08:19;21.20;99.90
15113;DHT22;7657;50.140;7.076;2022-07-23T02:10:46;21.10;99.90
15113;DHT22;7657;50.140;7.076;2022-07-23T02:13:14;21.10;99.90
15113;DHT22;7657;50.140;7.076;2022-07-23T02:15:42;21.10;99.90
15113;DHT22;7657;50.140;7.076;2022-07-23T02:18:09;21.10;99.90
15113;DHT22;7657;50.140;7.076;2022-07-23T02:20:36;21.10;99.90
15113;DHT22;7657;50.140;7.076;2022-07-23T02:23:05;21.00;99.90
15113;DHT22;7657;50.140;7.076;2022-07-23T02:45:45;21.00;99.90
15113;DHT22;7657;50.140;7.076;2022-07-23T02:48:12;21.00;99.90
15113;DHT22;7657;50.140;7.076;2022-07-23T02:50:39;21.00;99.90
15113;DHT22;7657;50.140;7.076;2022-07-23T02:53:06;21.00;99.90
15113;DHT22;7657;50.140;7.076;2022-07-23T02:55:33;21.00;99.90
15113;DHT22;7657;50.140;7.076;2022-07-23T02:58:00;20.80;99.90
15113;DHT22;7657;50.140;7.076;2022-07-23T03:00:28;20.80;99.90
15113;DHT22;7657;50.140;7.076;2022-07-23T03:02:56;20.80;99.90
15113;DHT22;7657;50.140;7.076;2022-07-23T03:05:23;20.70;99.90
15113;DHT22;7657;50.140;7.076;2022-07-23T03:07:50;20.70;99.90
15113;DHT22;7657;50.140;7.076;2022-07-23T03:10:17;20.60;99.90
15113;DHT22;7657;50.140;7.076;2022-07-23T03:12:44;20.60;99.90
15113;DHT22;7657;50.140;7.076;2022-07-23T03:15:11;20.40;99.90
15113;DHT22;7657;50.140;7.076;2022-07-23T03:17:38;20.50;99.90
15113;DHT22;7657;50.140;7.076;2022-07-23T03:20:08;20.50;99.90
15113;DHT22;7657;50.140;7.076;2022-07-23T03:22:35;20.40;99.90
15113;DHT22;7657;50.140;7.076;2022-07-23T03:25:02;20.40;99.90
15113;DHT22;7657;50.140;7.076;2022-07-23T03:27:30;20.30;99.90
15113;DHT22;7657;50.140;7.076;2022-07-23T03:29:58;20.40;99.90
15113;DHT22;7657;50.140;7.076;2022-07-23T03:32:25;20.40;99.90
15113;DHT22;7657;50.140;7.076;2022-07-23T03:34:53;20.30;99.90
15113;DHT22;7657;50.140;7.076;2022-07-23T03:37:21;20.40;99.90
15113;DHT22;7657;50.140;7.076;2022-07-23T03:39:48;20.40;99.90
15113;DHT22;7657;50.140;7.076;2022-07-23T03:42:15;20.50;99.90
15113;DHT22;7657;50.140;7.076;2022-07-23T03:44:42;20.40;99.90
15113;DHT22;7657;50.140;7.076;2022-07-23T03:47:09;20.40;99.90
15113;DHT22;7657;50.140;7.076;2022-07-23T03:49:36;20.40;99.90
15113;DHT22;7657;50.140;7.076;2022-07-23T03:52:03;20.40;99.90
15113;DHT22;7657;50.140;7.076;2022-07-23T03:54:32;20.40;99.90
15113;DHT22;7657;50.140;7.076;2022-07-23T03:56:59;20.30;99.90
15113;DHT22;7657;50.140;7.076;2022-07-23T03:59:26;20.30;99.90
15113;DHT22;7657;50.140;7.076;2022-07-23T04:01:53;20.30;99.90
15113;DHT22;7657;50.140;7.076;2022-07-23T04:04:19;20.30;99.90
15113;DHT22;7657;50.140;7.076;2022-07-23T04:06:46;20.30;99.90
15113;DHT22;7657;50.140;7.076;2022-07-23T04:09:13;20.30;99.90
15113;DHT22;7657;50.140;7.076;2022-07-23T04:11:42;20.30;99.90
15113;DHT22;7657;50.140;7.076;2022-07-23T04:14:09;20.20;99.90
15113;DHT22;7657;50.140;7.076;2022-07-23T04:16:36;20.20;99.90
15113;DHT22;7657;50.140;7.076;2022-07-23T04:19:04;20.20;99.90
15113;DHT22;7657;50.140;7.076;2022-07-23T04:21:31;20.20;99.90
15113;DHT22;7657;50.140;7.076;2022-07-23T04:23:58;20.10;99.90
15113;DHT22;7657;50.140;7.076;2022-07-23T04:26:25;20.10;99.90
15113;DHT22;7657;50.140;7.076;2022-07-23T04:28:53;20.10;99.90
15113;DHT22;7657;50.140;7.076;2022-07-23T04:31:20;19.90;99.90
15113;DHT22;7657;50.140;7.076;2022-07-23T04:33:47;19.90;99.90
15113;DHT22;7657;50.140;7.076;2022-07-23T04:36:14;19.70;99.90
15113;DHT22;7657;50.140;7.076;2022-07-23T04:38:41;19.40;99.90
15113;DHT22;7657;50.140;7.076;2022-07-23T04:41:08;19.50;99.90
15113;DHT22;7657;50.140;7.076;2022-07-23T04:43:34;19.50;99.90
15113;DHT22;7657;50.140;7.076;2022-07-23T04:46:03;19.60;99.90
15113;DHT22;7657;50.140;7.076;2022-07-23T04:48:30;19.70;99.90
15113;DHT22;7657;50.140;7.076;2022-07-23T04:50:57;19.70;99.90
15113;DHT22;7657;50.140;7.076;2022-07-23T04:53:24;19.80;99.90
15113;DHT22;7657;50.140;7.076;2022-07-23T04:55:51;19.80;99.90
15113;DHT22;7657;50.140;7.076;2022-07-23T04:58:18;19.80;99.90
15113;DHT22;7657;50.140;7.076;2022-07-23T05:00:46;19.90;99.90
15113;DHT22;7657;50.140;7.076;2022-07-23T05:03:14;19.90;99.90
15113;DHT22;7657;50.140;7.076;2022-07-23T05:05:41;20.00;99.90
15113;DHT22;7657;50.140;7.076;2022-07-23T05:08:08;20.00;99.90
15113;DHT22;7657;50.140;7.076;2022-07-23T05:10:35;20.00;99.90
15113;DHT22;7657;50.140;7.076;2022-07-23T05:13:02;20.00;99.90
15113;DHT22;7657;50.140;7.076;2022-07-23T05:15:29;20.10;99.90
15113;DHT22;7657;50.140;7.076;2022-07-23T05:17:56;20.10;99.90
15113;DHT22;7657;50.140;7.076;2022-07-23T05:20:25;20.10;99.90
15113;DHT22;7657;50.140;7.076;2022-07-23T05:22:52;20.20;99.90
15113;DHT22;7657;50.140;7.076;2022-07-23T05:25:19;20.20;99.90
15113;DHT22;7657;50.140;7.076;2022-07-23T05:27:46;20.20;99.90
15113;DHT22;7657;50.140;7.076;2022-07-23T05:30:13;20.20;99.90
15113;DHT22;7657;50.140;7.076;2022-07-23T05:32:40;20.20;99.90
15113;DHT22;7657;50.140;7.076;2022-07-23T05:35:07;20.20;99.90
15113;DHT22;7657;50.140;7.076;2022-07-23T05:37:36;20.20;99.90
15113;DHT22;7657;50.140;7.076;2022-07-23T05:40:05;20.20;99.90
15113;DHT22;7657;50.140;7.076;2022-07-23T05:42:33;20.30;99.90
15113;DHT22;7657;50.140;7.076;2022-07-23T05:45:00;20.30;99.90
15113;DHT22;7657;50.140;7.076;2022-07-23T05:47:27;20.30;99.90
15113;DHT22;7657;50.140;7.076;2022-07-23T05:49:54;20.20;99.90
15113;DHT22;7657;50.140;7.076;2022-07-23T05:52:21;20.10;99.90
15113;DHT22;7657;50.140;7.076;2022-07-23T05:54:49;20.10;99.90
15113;DHT22;7657;50.140;7.076;2022-07-23T05:57:16;20.10;99.90
15113;DHT22;7657;50.140;7.076;2022-07-23T05:59:43;20.10;99.90
15113;DHT22;7657;50.140;7.076;2022-07-23T06:02:10;20.10;99.90
15113;DHT22;7657;50.140;7.076;2022-07-23T06:04:37;20.10;99.90
15113;DHT22;7657;50.140;7.076;2022-07-23T06:07:04;20.10;99.90
15113;DHT22;7657;50.140;7.076;2022-07-23T06:09:31;20.00;99.90
15113;DHT22;7657;50.140;7.076;2022-07-23T06:11:59;20.00;99.90
15113;DHT22;7657;50.140;7.076;2022-07-23T06:14:26;20.00;99.90
15113;DHT22;7657;50.140;7.076;2022-07-23T06:16:53;20.10;99.90
15113;DHT22;7657;50.140;7.076;2022-07-23T06:19:20;20.10;99.90
15113;DHT22;7657;50.140;7.076;2022-07-23T06:21:47;20.10;99.90
15113;DHT22;7657;50.140;7.076;2022-07-23T06:24:14;20.10;99.90
15113;DHT22;7657;50.140;7.076;2022-07-23T06:26:41;20.10;99.90
15113;DHT22;7657;50.140;7.076;2022-07-23T06:29:09;20.20;99.90
15113;DHT22;7657;50.140;7.076;2022-07-23T06:31:36;20.10;99.90
15113;DHT22;7657;50.140;7.076;2022-07-23T06:34:04;20.10;99.90
15113;DHT22;7657;50.140;7.076;2022-07-23T06:36:31;20.10;99.90
15113;DHT22;7657;50.140;7.076;2022-07-23T06:38:58;20.20;99.90
15113;DHT22;7657;50.140;7.076;2022-07-23T06:41:25;20.30;99.90
15113;DHT22;7657;50.140;7.076;2022-07-23T06:43:51;20.30;99.90
15113;DHT22;7657;50.140;7.076;2022-07-23T06:46:20;20.40;99.90
15113;DHT22;7657;50.140;7.076;2022-07-23T06:48:47;20.30;99.90
15113;DHT22;7657;50.140;7.076;2022-07-23T06:51:14;20.30;99.90
15113;DHT22;7657;50.140;7.076;2022-07-23T06:53:41;20.20;99.90
15113;DHT22;7657;50.140;7.076;2022-07-23T06:56:08;20.20;99.90
15113;DHT22;7657;50.140;7.076;2022-07-23T06:58:35;20.20;99.90
15113;DHT22;7657;50.140;7.076;2022-07-23T07:01:02;20.20;99.90
15113;DHT22;7657;50.140;7.076;2022-07-23T07:03:30;20.30;99.90
15113;DHT22;7657;50.140;7.076;2022-07-23T07:05:57;20.20;99.90
15113;DHT22;7657;50.140;7.076;2022-07-23T07:08:24;20.30;99.90
15113;DHT22;7657;50.140;7.076;2022-07-23T07:10:51;20.20;99.90
15113;DHT22;7657;50.140;7.076;2022-07-23T07:13:18;20.20;99.90
15113;DHT22;7657;50.140;7.076;2022-07-23T07:15:45;20.20;99.90
15113;DHT22;7657;50.140;7.076;2022-07-23T07:18:12;20.20;99.90
15113;DHT22;7657;50.140;7.076;2022-07-23T07:20:40;20.20;99.90
15113;DHT22;7657;50.140;7.076;2022-07-23T07:23:07;20.20;99.90
15113;DHT22;7657;50.140;7.076;2022-07-23T07:25:34;20.30;99.90
15113;DHT22;7657;50.140;7.076;2022-07-23T07:28:01;20.30;99.90
15113;DHT22;7657;50.140;7.076;2022-07-23T07:30:28;20.40;99.90
15113;DHT22;7657;50.140;7.076;2022-07-23T07:32:55;20.50;99.90
15113;DHT22;7657;50.140;7.076;2022-07-23T07:35:22;20.60;99.90
15113;DHT22;7657;50.140;7.076;2022-07-23T07:37:51;20.60;99.90
15113;DHT22;7657;50.140;7.076;2022-07-23T07:40:18;20.60;99.90
15113;DHT22;7657;50.140;7.076;2022-07-23T07:42:46;20.70;99.90
15113;DHT22;7657;50.140;7.076;2022-07-23T07:45:13;20.70;99.90
15113;DHT22;7657;50.140;7.076;2022-07-23T07:47:41;20.80;99.90
15113;DHT22;7657;50.140;7.076;2022-07-23T07:50:09;20.80;99.90
15113;DHT22;7657;50.140;7.076;2022-07-23T07:52:36;20.80;99.90
15113;DHT22;7657;50.140;7.076;2022-07-23T07:55:05;20.90;99.90
15113;DHT22;7657;50.140;7.076;2022-07-23T07:57:33;20.80;99.90
15113;DHT22;7657;50.140;7.076;2022-07-23T08:00:00;20.80;99.90
15113;DHT22;7657;50.140;7.076;2022-07-23T08:02:27;20.80;99.90
15113;DHT22;7657;50.140;7.076;2022-07-23T08:04:54;20.80;99.90
15113;DHT22;7657;50.140;7.076;2022-07-23T08:07:22;20.90;99.90
15113;DHT22;7657;50.140;7.076;2022-07-23T08:09:49;20.90;99.90
15113;DHT22;7657;50.140;7.076;2022-07-23T08:12:18;20.90;99.90
15113;DHT22;7657;50.140;7.076;2022-07-23T08:14:45;21.00;99.90
15113;DHT22;7657;50.140;7.076;2022-07-23T08:17:11;21.10;99.90
15113;DHT22;7657;50.140;7.076;2022-07-23T08:19:38;21.10;99.90
15113;DHT22;7657;50.140;7.076;2022-07-23T08:22:05;21.20;99.90
15113;DHT22;7657;50.140;7.076;2022-07-23T08:24:32;21.30;99.90
15113;DHT22;7657;50.140;7.076;2022-07-23T08:26:59;21.30;99.90
15113;DHT22;7657;50.140;7.076;2022-07-23T08:29:28;21.40;99.90
15113;DHT22;7657;50.140;7.076;2022-07-23T08:31:54;21.40;99.90
15113;DHT22;7657;50.140;7.076;2022-07-23T08:34:21;21.40;99.90
15113;DHT22;7657;50.140;7.076;2022-07-23T08:36:48;21.50;99.90
15113;DHT22;7657;50.140;7.076;2022-07-23T08:39:15;21.60;99.90
15113;DHT22;7657;50.140;7.076;2022-07-23T08:41:42;21.60;99.90
15113;DHT22;7657;50.140;7.076;2022-07-23T08:44:09;21.60;99.90
15113;DHT22;7657;50.140;7.076;2022-07-23T08:46:39;21.60;99.90
15113;DHT22;7657;50.140;7.076;2022-07-23T08:49:07;21.70;99.90
15113;DHT22;7657;50.140;7.076;2022-07-23T08:51:34;21.70;99.90
15113;DHT22;7657;50.140;7.076;2022-07-23T08:54:01;21.80;99.90
15113;DHT22;7657;50.140;7.076;2022-07-23T08:56:29;21.80;99.90
15113;DHT22;7657;50.140;7.076;2022-07-23T08:58:57;21.80;99.90
15113;DHT22;7657;50.140;7.076;2022-07-23T09:01:24;21.80;99.90
15113;DHT22;7657;50.140;7.076;2022-07-23T09:03:53;21.80;99.90
15113;DHT22;7657;50.140;7.076;2022-07-23T09:06:20;21.90;99.90
15113;DHT22;7657;50.140;7.076;2022-07-23T09:08:47;21.90;99.90
15113;DHT22;7657;50.140;7.076;2022-07-23T09:11:16;22.00;99.90
15113;DHT22;7657;50.140;7.076;2022-07-23T09:13:46;22.00;99.90
15113;DHT22;7657;50.140;7.076;2022-07-23T09:16:15;22.10;99.90
15113;DHT22;7657;50.140;7.076;2022-07-23T09:18:44;22.10;99.90
15113;DHT22;7657;50.140;7.076;2022-07-23T09:21:22;22.10;99.90
15113;DHT22;7657;50.140;7.076;2022-07-23T09:23:52;22.10;99.90
15113;DHT22;7657;50.140;7.076;2022-07-23T09:26:22;22.10;99.90
15113;DHT22;7657;50.140;7.076;2022-07-23T09:28:52;22.10;99.90
15113;DHT22;7657;50.140;7.076;2022-07-23T09:31:19;22.10;99.90
15113;DHT22;7657;50.140;7.076;2022-07-23T09:33:47;22.10;99.90
15113;DHT22;7657;50.140;7.076;2022-07-23T09:36:14;22.10;99.90
15113;DHT22;7657;50.140;7.076;2022-07-23T09:38:50;22.20;99.90
15113;DHT22;7657;50.140;7.076;2022-07-23T09:41:17;22.20;99.90
15113;DHT22;7657;50.140;7.076;2022-07-23T09:43:44;22.20;99.90
15113;DHT22;7657;50.140;7.076;2022-07-23T09:46:20;22.30;99.90
15113;DHT22;7657;50.140;7.076;2022-07-23T09:48:47;22.30;99.90
15113;DHT22;7657;50.140;7.076;2022-07-23T09:51:14;22.30;99.90
15113;DHT22;7657;50.140;7.076;2022-07-23T09:53:42;22.30;99.90
15113;DHT22;7657;50.140;7.076;2022-07-23T09:56:12;22.30;99.90
15113;DHT22;7657;50.140;7.076;2022-07-23T09:58:41;22.30;99.90
15113;DHT22;7657;50.140;7.076;2022-07-23T10:01:13;22.30;99.90
15113;DHT22;7657;50.140;7.076;2022-07-23T10:03:41;22.30;99.90
15113;DHT22;7657;50.140;7.076;2022-07-23T10:06:09;22.30;99.90
15113;DHT22;7657;50.140;7.076;2022-07-23T10:08:39;22.30;99.90
15113;DHT22;7657;50.140;7.076;2022-07-23T10:11:07;22.20;99.90
15113;DHT22;7657;50.140;7.076;2022-07-23T10:13:37;22.20;99.90
15113;DHT22;7657;50.140;7.076;2022-07-23T10:16:20;22.30;99.90
15113;DHT22;7657;50.140;7.076;2022-07-23T10:18:48;22.30;99.90
15113;DHT22;7657;50.140;7.076;2022-07-23T10:21:18;22.40;99.90
15113;DHT22;7657;50.140;7.076;2022-07-23T10:23:57;22.40;99.90
15113;DHT22;7657;50.140;7.076;2022-07-23T10:26:34;22.50;99.90
15113;DHT22;7657;50.140;7.076;2022-07-23T10:29:12;22.50;99.90
15113;DHT22;7657;50.140;7.076;2022-07-23T10:31:50;22.60;99.90
15113;DHT22;7657;50.140;7.076;2022-07-23T10:34:24;22.70;99.90
15113;DHT22;7657;50.140;7.076;2022-07-23T10:36:57;22.70;99.90
15113;DHT22;7657;50.140;7.076;2022-07-23T10:39:29;22.80;99.90
15113;DHT22;7657;50.140;7.076;2022-07-23T10:42:09;22.90;99.90
15113;DHT22;7657;50.140;7.076;2022-07-23T10:44:42;22.90;99.90
15113;DHT22;7657;50.140;7.076;2022-07-23T10:47:10;22.90;99.90
15113;DHT22;7657;50.140;7.076;2022-07-23T10:50:19;22.90;99.90
15113;DHT22;7657;50.140;7.076;2022-07-23T10:53:11;23.00;99.90
15113;DHT22;7657;50.140;7.076;2022-07-23T10:55:41;23.00;99.90
15113;DHT22;7657;50.140;7.076;2022-07-23T10:58:08;23.10;99.90
15113;DHT22;7657;50.140;7.076;2022-07-23T11:00:37;23.10;99.90
15113;DHT22;7657;50.140;7.076;2022-07-23T11:05:49;23.10;99.90
15113;DHT22;7657;50.140;7.076;2022-07-23T11:08:19;23.30;99.90
15113;DHT22;7657;50.140;7.076;2022-07-23T11:10:55;23.30;99.90
15113;DHT22;7657;50.140;7.076;2022-07-23T11:13:30;23.40;99.90
15113;DHT22;7657;50.140;7.076;2022-07-23T11:16:06;23.40;99.90
15113;DHT22;7657;50.140;7.076;2022-07-23T11:21:48;23.50;99.90
15113;DHT22;7657;50.140;7.076;2022-07-23T11:24:20;23.60;99.90
15113;DHT22;7657;50.140;7.076;2022-07-23T11:26:53;23.60;99.90
15113;DHT22;7657;50.140;7.076;2022-07-23T11:29:45;23.70;99.90
15113;DHT22;7657;50.140;7.076;2022-07-23T11:32:27;23.70;99.90
15113;DHT22;7657;50.140;7.076;2022-07-23T11:34:55;23.90;99.90
15113;DHT22;7657;50.140;7.076;2022-07-23T11:37:35;23.90;99.90
15113;DHT22;7657;50.140;7.076;2022-07-23T11:40:06;24.00;99.90
15113;DHT22;7657;50.140;7.076;2022-07-23T11:42:35;24.10;99.90
15113;DHT22;7657;50.140;7.076;2022-07-23T11:45:03;24.10;99.90
15113;DHT22;7657;50.140;7.076;2022-07-23T11:47:32;24.20;99.90
15113;DHT22;7657;50.140;7.076;2022-07-23T11:50:00;24.20;99.90
15113;DHT22;7657;50.140;7.076;2022-07-23T11:52:28;24.20;99.90
15113;DHT22;7657;50.140;7.076;2022-07-23T11:54:58;24.20;99.90
15113;DHT22;7657;50.140;7.076;2022-07-23T11:57:27;24.20;99.90
15113;DHT22;7657;50.140;7.076;2022-07-23T11:59:56;24.20;99.90
15113;DHT22;7657;50.140;7.076;2022-07-23T12:02:24;24.20;99.90
15113;DHT22;7657;50.140;7.076;2022-07-23T12:04:53;24.20;99.90
15113;DHT22;7657;50.140;7.076;2022-07-23T12:07:29;24.20;99.90
15113;DHT22;7657;50.140;7.076;2022-07-23T12:09:58;24.20;99.90
15113;DHT22;7657;50.140;7.076;2022-07-23T12:12:25;24.30;99.90
15113;DHT22;7657;50.140;7.076;2022-07-23T12:14:54;24.30;99.90
15113;DHT22;7657;50.140;7.076;2022-07-23T12:17:27;24.40;99.90
15113;DHT22;7657;50.140;7.076;2022-07-23T12:19:56;24.40;99.90
15113;DHT22;7657;50.140;7.076;2022-07-23T12:22:24;24.50;99.90
15113;DHT22;7657;50.140;7.076;2022-07-23T12:24:57;24.60;99.90
15113;DHT22;7657;50.140;7.076;2022-07-23T12:27:27;24.70;99.90
15113;DHT22;7657;50.140;7.076;2022-07-23T12:29:54;24.70;99.90
15113;DHT22;7657;50.140;7.076;2022-07-23T12:32:22;24.90;99.90
15113;DHT22;7657;50.140;7.076;2022-07-23T12:34:53;24.90;99.90
15113;DHT22;7657;50.140;7.076;2022-07-23T12:37:32;25.00;99.90
15113;DHT22;7657;50.140;7.076;2022-07-23T12:40:24;25.00;99.90
15113;DHT22;7657;50.140;7.076;2022-07-23T12:42:53;25.00;99.90
15113;DHT22;7657;50.140;7.076;2022-07-23T12:45:21;24.90;99.90
15113;DHT22;7657;50.140;7.076;2022-07-23T12:48:03;24.90;99.90
15113;DHT22;7657;50.140;7.076;2022-07-23T12:50:48;25.00;99.90
15113;DHT22;7657;50.140;7.076;2022-07-23T12:53:19;25.00;99.90
15113;DHT22;7657;50.140;7.076;2022-07-23T12:55:48;25.00;99.90
15113;DHT22;7657;50.140;7.076;2022-07-23T12:58:16;25.00;99.90
15113;DHT22;7657;50.140;7.076;2022-07-23T13:01:02;25.00;99.90
15113;DHT22;7657;50.140;7.076;2022-07-23T13:03:36;25.20;99.90
15113;DHT22;7657;50.140;7.076;2022-07-23T13:06:05;25.40;99.90
15113;DHT22;7657;50.140;7.076;2022-07-23T13:08:35;25.50;99.90
15113;DHT22;7657;50.140;7.076;2022-07-23T13:11:03;25.50;99.90
15113;DHT22;7657;50.140;7.076;2022-07-23T13:13:32;25.50;99.90
15113;DHT22;7657;50.140;7.076;2022-07-23T13:16:00;25.50;99.90
15113;DHT22;7657;50.140;7.076;2022-07-23T13:18:28;25.70;99.90
15113;DHT22;7657;50.140;7.076;2022-07-23T13:20:56;25.70;99.90
15113;DHT22;7657;50.140;7.076;2022-07-23T13:23:23;26.00;99.90
15113;DHT22;7657;50.140;7.076;2022-07-23T13:25:52;26.00;99.90
15113;DHT22;7657;50.140;7.076;2022-07-23T13:28:20;26.00;99.90
15113;DHT22;7657;50.140;7.076;2022-07-23T13:30:48;26.00;99.90
15113;DHT22;7657;50.140;7.076;2022-07-23T13:33:17;26.00;99.90
15113;DHT22;7657;50.140;7.076;2022-07-23T13:35:44;26.10;99.90
15113;DHT22;7657;50.140;7.076;2022-07-23T13:38:11;26.10;99.90
15113;DHT22;7657;50.140;7.076;2022-07-23T13:40:41;26.20;99.90
15113;DHT22;7657;50.140;7.076;2022-07-23T13:43:11;26.40;99.90
15113;DHT22;7657;50.140;7.076;2022-07-23T13:45:39;26.70;99.90
15113;DHT22;7657;50.140;7.076;2022-07-23T13:48:08;26.80;99.90
15113;DHT22;7657;50.140;7.076;2022-07-23T13:50:36;26.90;99.90
15113;DHT22;7657;50.140;7.076;2022-07-23T13:53:04;26.90;99.90
15113;DHT22;7657;50.140;7.076;2022-07-23T13:55:32;26.90;99.90
15113;DHT22;7657;50.140;7.076;2022-07-23T13:57:59;26.70;99.90
15113;DHT22;7657;50.140;7.076;2022-07-23T14:00:28;26.50;99.90
15113;DHT22;7657;50.140;7.076;2022-07-23T14:02:56;26.50;99.90
15113;DHT22;7657;50.140;7.076;2022-07-23T14:05:23;26.50;99.90
15113;DHT22;7657;50.140;7.076;2022-07-23T14:07:50;26.40;99.90
15113;DHT22;7657;50.140;7.076;2022-07-23T14:10:19;26.50;99.90
15113;DHT22;7657;50.140;7.076;2022-07-23T14:12:48;26.50;99.90
15113;DHT22;7657;50.140;7.076;2022-07-23T14:15:17;26.60;99.90
15113;DHT22;7657;50.140;7.076;2022-07-23T14:17:46;26.60;99.90
15113;DHT22;7657;50.140;7.076;2022-07-23T14:20:13;26.60;99.90
15113;DHT22;7657;50.140;7.076;2022-07-23T14:22:41;26.60;99.90
15113;DHT22;7657;50.140;7.076;2022-07-23T14:25:09;26.60;99.90
15113;DHT22;7657;50.140;7.076;2022-07-23T14:27:36;26.60;99.90
15113;DHT22;7657;50.140;7.076;2022-07-23T14:30:04;26.60;99.90
15113;DHT22;7657;50.140;7.076;2022-07-23T14:32:32;26.70;99.90
15113;DHT22;7657;50.140;7.076;2022-07-23T14:35:00;26.90;99.90
15113;DHT22;7657;50.140;7.076;2022-07-23T14:37:27;27.40;99.90
15113;DHT22;7657;50.140;7.076;2022-07-23T14:39:54;27.80;99.90
15113;DHT22;7657;50.140;7.076;2022-07-23T14:42:21;28.10;99.90
15113;DHT22;7657;50.140;7.076;2022-07-23T14:44:48;28.20;99.90
15113;DHT22;7657;50.140;7.076;2022-07-23T14:47:15;28.50;99.90
15113;DHT22;7657;50.140;7.076;2022-07-23T14:49:42;28.80;99.90
15113;DHT22;7657;50.140;7.076;2022-07-23T14:52:10;28.80;99.90
15113;DHT22;7657;50.140;7.076;2022-07-23T14:54:38;28.40;99.90
15113;DHT22;7657;50.140;7.076;2022-07-23T14:57:05;28.20;99.90
15113;DHT22;7657;50.140;7.076;2022-07-23T14:59:34;28.10;99.90
15113;DHT22;7657;50.140;7.076;2022-07-23T15:02:01;28.00;99.90
15113;DHT22;7657;50.140;7.076;2022-07-23T15:04:28;27.60;99.90
15113;DHT22;7657;50.140;7.076;2022-07-23T15:06:55;27.40;99.90
15113;DHT22;7657;50.140;7.076;2022-07-23T15:09:23;27.20;99.90
15113;DHT22;7657;50.140;7.076;2022-07-23T15:11:50;27.00;99.90
15113;DHT22;7657;50.140;7.076;2022-07-23T15:14:17;27.00;99.90
15113;DHT22;7657;50.140;7.076;2022-07-23T15:16:44;27.00;99.90
15113;DHT22;7657;50.140;7.076;2022-07-23T15:19:11;26.90;99.90
15113;DHT22;7657;50.140;7.076;2022-07-23T15:21:38;26.90;99.90
15113;DHT22;7657;50.140;7.076;2022-07-23T15:24:05;26.80;99.90
15113;DHT22;7657;50.140;7.076;2022-07-23T15:26:33;26.80;99.90
15113;DHT22;7657;50.140;7.076;2022-07-23T15:29:01;26.90;99.90
15113;DHT22;7657;50.140;7.076;2022-07-23T15:31:29;26.90;99.90
15113;DHT22;7657;50.140;7.076;2022-07-23T15:33:56;26.90;99.90
15113;DHT22;7657;50.140;7.076;2022-07-23T15:36:23;27.00;99.90
15113;DHT22;7657;50.140;7.076;2022-07-23T15:38:50;27.00;99.90
15113;DHT22;7657;50.140;7.076;2022-07-23T15:41:17;27.10;99.90
15113;DHT22;7657;50.140;7.076;2022-07-23T15:43:45;27.30;99.90
15113;DHT22;7657;50.140;7.076;2022-07-23T15:46:12;27.60;99.90
15113;DHT22;7657;50.140;7.076;2022-07-23T15:48:40;27.80;99.90
15113;DHT22;7657;50.140;7.076;2022-07-23T15:51:07;28.10;99.90
15113;DHT22;7657;50.140;7.076;2022-07-23T15:53:34;28.30;99.90
15113;DHT22;7657;50.140;7.076;2022-07-23T15:56:02;28.60;99.90
15113;DHT22;7657;50.140;7.076;2022-07-23T15:58:29;28.90;99.90
15113;DHT22;7657;50.140;7.076;2022-07-23T16:00:57;28.90;99.90
15113;DHT22;7657;50.140;7.076;2022-07-23T16:03:29;28.90;99.90
15113;DHT22;7657;50.140;7.076;2022-07-23T16:05:56;28.70;99.90
15113;DHT22;7657;50.140;7.076;2022-07-23T16:08:23;28.60;99.90
15113;DHT22;7657;50.140;7.076;2022-07-23T16:10:50;28.50;99.90
15113;DHT22;7657;50.140;7.076;2022-07-23T16:13:17;28.50;99.90
15113;DHT22;7657;50.140;7.076;2022-07-23T16:15:44;28.70;99.90
15113;DHT22;7657;50.140;7.076;2022-07-23T16:18:13;28.80;99.90